createdAt,value
2018-06-05T00:00:37.239Z,100682.30
2018-06-05T00:03:04.843Z,100683.88
2018-06-05T00:05:32.090Z,100691.06
2018-06-05T00:07:59.195Z,100685.89
2018-06-05T00:10:26.297Z,100689.80
2018-06-05T00:12:53.452Z,100692.98
2018-06-05T00:15:20.552Z,100691.03
2018-06-05T00:17:47.737Z,100692.74
2018-06-05T00:20:15.390Z,100690.09
2018-06-05T00:22:42.501Z,100685.88
2018-06-05T00:25:09.708Z,100682.36
2018-06-05T00:27:36.854Z,100686.19
2018-06-05T00:30:04.211Z,100686.40
2018-06-05T00:32:31.327Z,100685.47
2018-06-05T00:34:58.498Z,100683.74
2018-06-05T00:37:26.487Z,100686.64
2018-06-05T00:39:53.618Z,100689.92
2018-06-05T00:42:21.041Z,100693.58
2018-06-05T00:44:48.167Z,100691.52
2018-06-05T00:47:25.102Z,100689.80
2018-06-05T00:49:52.231Z,100694.02
2018-06-05T00:52:19.401Z,100698.27
2018-06-05T00:54:46.675Z,100694.52
2018-06-05T00:57:13.790Z,100689.44
2018-06-05T00:59:40.945Z,100691.03
2018-06-05T01:02:08.763Z,100685.23
2018-06-05T01:04:35.909Z,100691.86
2018-06-05T01:07:04.008Z,100688.78
2018-06-05T01:09:31.236Z,100686.81
2018-06-05T01:11:58.401Z,100679.48
2018-06-05T01:14:25.514Z,100675.34
2018-06-05T01:16:52.661Z,100672.66
2018-06-05T01:19:19.807Z,100671.56
2018-06-05T01:21:47.020Z,100668.11
2018-06-05T01:24:14.210Z,100668.80
2018-06-05T01:26:41.307Z,100674.34
2018-06-05T01:29:08.437Z,100674.18
2018-06-05T01:31:35.811Z,100675.54
2018-06-05T01:34:02.923Z,100667.61
2018-06-05T01:36:30.084Z,100672.22
2018-06-05T01:38:57.272Z,100665.52
2018-06-05T01:41:24.378Z,100673.28
2018-06-05T01:43:51.567Z,100669.80
2018-06-05T01:46:18.713Z,100665.69
2018-06-05T01:48:45.844Z,100662.55
2018-06-05T01:51:12.953Z,100662.50
2018-06-05T01:53:40.220Z,100665.28
2018-06-05T01:56:07.341Z,100653.75
2018-06-05T01:58:34.481Z,100652.95
2018-06-05T02:01:01.662Z,100646.63
2018-06-05T02:03:28.864Z,100648.19
2018-06-05T02:05:55.959Z,100647.86
2018-06-05T02:08:23.112Z,100647.98
2018-06-05T02:10:50.225Z,100646.72
2018-06-05T02:13:17.333Z,100644.53
2018-06-05T02:15:44.491Z,100645.94
2018-06-05T02:18:11.628Z,100642.96
2018-06-05T02:20:38.756Z,100635.68
2018-06-05T02:23:05.967Z,100647.45
2018-06-05T02:25:33.086Z,100651.74
2018-06-05T02:28:00.200Z,100649.63
2018-06-05T02:30:27.351Z,100649.48
2018-06-05T02:32:54.530Z,100649.63
2018-06-05T02:35:21.655Z,100651.98
2018-06-05T02:37:48.828Z,100656.23
2018-06-05T02:40:15.989Z,100658.84
2018-06-05T02:42:43.140Z,100655.50
2018-06-05T02:45:10.281Z,100652.67
2018-06-05T02:47:37.403Z,100658.59
2018-06-05T02:50:04.557Z,100662.63
2018-06-05T02:52:31.753Z,100666.64
2018-06-05T02:54:58.871Z,100670.53
2018-06-05T02:57:25.995Z,100673.28
2018-06-05T02:59:53.172Z,100669.20
2018-06-05T03:02:20.337Z,100669.30
2018-06-05T03:04:47.465Z,100669.30
2018-06-05T03:07:14.578Z,100672.75
2018-06-05T03:09:42.475Z,100677.59
2018-06-05T03:12:09.617Z,100675.30
2018-06-05T03:14:37.328Z,100676.50
2018-06-05T03:17:04.469Z,100680.08
2018-06-05T03:19:31.604Z,100672.68
2018-06-05T03:21:58.789Z,100678.16
2018-06-05T03:24:25.938Z,100677.45
2018-06-05T03:26:53.082Z,100682.70
2018-06-05T03:29:20.296Z,100686.38
2018-06-05T03:31:47.408Z,100684.75
2018-06-05T03:34:14.552Z,100678.63
2018-06-05T03:36:41.730Z,100679.48
2018-06-05T03:39:08.896Z,100678.30
2018-06-05T03:41:36.029Z,100682.53
2018-06-05T03:44:03.283Z,100692.11
2018-06-05T03:46:30.636Z,100684.93
2018-06-05T03:48:57.756Z,100683.45
2018-06-05T03:51:24.950Z,100681.95
2018-06-05T03:53:52.099Z,100673.30
2018-06-05T03:56:19.703Z,100677.11
2018-06-05T03:58:46.899Z,100685.41
2018-06-05T04:01:13.996Z,100689.01
2018-06-05T04:03:41.158Z,100688.20
2018-06-05T04:06:08.320Z,100686.80
2018-06-05T04:08:35.423Z,100686.89
2018-06-05T04:11:02.815Z,100691.45
2018-06-05T04:13:30.101Z,100694.98
2018-06-05T04:15:57.296Z,100687.87
2018-06-05T04:18:24.492Z,100690.27
2018-06-05T04:20:51.620Z,100698.11
2018-06-05T04:23:18.777Z,100695.66
2018-06-05T04:25:45.879Z,100693.25
2018-06-05T04:28:13.035Z,100697.08
2018-06-05T04:30:40.218Z,100703.09
2018-06-05T04:33:07.536Z,100701.22
2018-06-05T04:35:34.732Z,100700.81
2018-06-05T04:38:02.013Z,100707.65
2018-06-05T04:40:29.184Z,100712.46
2018-06-05T04:42:56.372Z,100700.96
2018-06-05T04:45:23.459Z,100709.17
2018-06-05T04:47:50.644Z,100712.08
2018-06-05T04:50:18.065Z,100707.52
2018-06-05T04:52:45.215Z,100717.86
2018-06-05T04:55:12.347Z,100712.39
2018-06-05T04:57:39.499Z,100719.91
2018-06-05T05:00:06.643Z,100721.41
2018-06-05T05:02:33.829Z,100723.75
2018-06-05T05:05:00.988Z,100720.60
2018-06-05T05:07:28.139Z,100733.58
2018-06-05T05:09:55.261Z,100734.39
2018-06-05T05:12:22.430Z,100736.51
2018-06-05T05:14:49.532Z,100736.64
2018-06-05T05:17:16.666Z,100737.50
2018-06-05T05:19:43.816Z,100743.31
2018-06-05T05:22:10.932Z,100743.69
2018-06-05T05:24:38.072Z,100744.79
2018-06-05T05:27:05.234Z,100748.09
2018-06-05T05:29:32.367Z,100749.93
2018-06-05T05:31:59.475Z,100747.35
2018-06-05T05:34:26.679Z,100751.36
2018-06-05T05:36:54.672Z,100753.09
2018-06-05T05:39:21.802Z,100755.90
2018-06-05T05:41:48.987Z,100757.72
2018-06-05T05:44:16.154Z,100758.19
2018-06-05T05:46:43.315Z,100760.26
2018-06-05T05:49:10.550Z,100763.23
2018-06-05T05:51:37.666Z,100766.23
2018-06-05T05:54:04.793Z,100767.32
2018-06-05T05:56:31.959Z,100770.36
2018-06-05T05:58:59.088Z,100776.42
2018-06-05T06:01:26.415Z,100781.08
2018-06-05T06:03:53.595Z,100785.53
2018-06-05T06:06:20.707Z,100784.95
2018-06-05T06:08:47.864Z,100793.47
2018-06-05T06:11:15.035Z,100793.72
2018-06-05T06:13:42.157Z,100794.97
2018-06-05T06:16:09.418Z,100796.42
2018-06-05T06:18:36.607Z,100794.08
2018-06-05T06:21:03.730Z,100796.95
2018-06-05T06:23:30.860Z,100800.72
2018-06-05T06:25:58.021Z,100799.92
2018-06-05T06:28:25.145Z,100802.15
2018-06-05T06:30:52.281Z,100799.61
2018-06-05T06:33:19.452Z,100800.80
2018-06-05T06:35:46.578Z,100797.67
2018-06-05T06:38:13.940Z,100803.77
2018-06-05T06:40:41.076Z,100801.28
2018-06-05T06:43:08.165Z,100803.77
2018-06-05T06:45:35.325Z,100807.67
2018-06-05T06:48:02.549Z,100806.03
2018-06-05T06:50:29.778Z,100808.70
2018-06-05T06:52:56.930Z,100810.22
2018-06-05T06:55:24.110Z,100812.20
2018-06-05T06:57:51.339Z,100809.05
2018-06-05T07:00:18.440Z,100816.27
2018-06-05T07:02:45.739Z,100820.50
2018-06-05T07:05:12.867Z,100817.59
2018-06-05T07:07:40.071Z,100818.91
2018-06-05T07:10:07.916Z,100822.00
2018-06-05T07:12:35.002Z,100817.09
2018-06-05T07:15:02.201Z,100825.47
2018-06-05T07:17:30.486Z,100819.26
2018-06-05T07:19:57.605Z,100828.11
2018-06-05T07:22:24.800Z,100828.51
2018-06-05T07:24:51.964Z,100830.23
2018-06-05T07:27:19.123Z,100827.84
2018-06-05T07:29:46.228Z,100832.08
2018-06-05T07:32:13.601Z,100836.28
2018-06-05T07:34:40.699Z,100839.69
2018-06-05T07:37:08.224Z,100834.98
2018-06-05T07:39:35.682Z,100837.65
2018-06-05T07:42:02.887Z,100832.86
2018-06-05T07:44:29.994Z,100836.49
2018-06-05T07:46:57.180Z,100839.98
2018-06-05T07:49:24.361Z,100843.39
2018-06-05T07:51:51.559Z,100839.47
2018-06-05T07:54:18.703Z,100843.00
2018-06-05T07:56:45.787Z,100838.13
2018-06-05T07:59:13.727Z,100844.80
2018-06-05T08:01:40.902Z,100841.66
2018-06-05T08:04:08.136Z,100848.00
2018-06-05T08:06:35.483Z,100846.08
2018-06-05T08:09:03.264Z,100847.50
2018-06-05T08:11:30.388Z,100845.86
2018-06-05T08:13:57.547Z,100841.38
2018-06-05T08:16:24.819Z,100845.62
2018-06-05T08:18:51.962Z,100845.62
2018-06-05T08:21:19.324Z,100853.92
2018-06-05T08:23:46.491Z,100851.27
2018-06-05T08:26:13.632Z,100852.34
2018-06-05T08:28:40.866Z,100853.23
2018-06-05T08:31:08.384Z,100852.03
2018-06-05T08:33:35.497Z,100854.17
2018-06-05T08:36:02.676Z,100861.25
2018-06-05T08:38:29.909Z,100860.39
2018-06-05T08:40:57.348Z,100865.95
2018-06-05T08:43:24.495Z,100860.66
2018-06-05T08:45:51.654Z,100857.94
2018-06-05T08:48:18.773Z,100860.41
2018-06-05T08:50:45.881Z,100866.34
2018-06-05T08:53:13.152Z,100863.63
2018-06-05T08:55:40.321Z,100863.57
2018-06-05T08:58:07.526Z,100863.34
2018-06-05T09:00:34.678Z,100865.31
2018-06-05T09:03:01.773Z,100870.30
2018-06-05T09:05:28.963Z,100861.77
2018-06-05T09:07:56.144Z,100864.82
2018-06-05T09:10:23.246Z,100864.10
2018-06-05T09:12:50.837Z,100876.66
2018-06-05T09:15:19.284Z,100870.50
2018-06-05T09:17:47.316Z,100874.74
2018-06-05T09:20:14.624Z,100876.34
2018-06-05T09:22:41.807Z,100875.51
2018-06-05T09:25:09.030Z,100880.98
2018-06-05T09:27:36.251Z,100885.28
2018-06-05T09:30:03.567Z,100883.38
2018-06-05T09:32:30.972Z,100876.63
2018-06-05T09:34:58.101Z,100883.02
2018-06-05T09:37:25.259Z,100887.67
2018-06-05T09:39:52.370Z,100888.05
2018-06-05T09:42:19.567Z,100885.34
2018-06-05T09:44:46.742Z,100885.75
2018-06-05T09:47:13.887Z,100883.20
2018-06-05T09:49:40.986Z,100884.20
2018-06-05T09:52:08.157Z,100886.66
2018-06-05T09:54:35.985Z,100890.02
2018-06-05T09:57:03.101Z,100891.55
2018-06-05T09:59:31.348Z,100887.36
2018-06-05T10:01:58.498Z,100897.77
2018-06-05T10:04:25.605Z,100892.50
2018-06-05T10:06:52.857Z,100893.42
2018-06-05T10:09:20.178Z,100890.73
2018-06-05T10:11:47.324Z,100899.41
2018-06-05T10:14:14.650Z,100894.95
2018-06-05T10:16:41.751Z,100894.33
2018-06-05T10:19:09.736Z,100894.55
2018-06-05T10:21:37.528Z,100896.05
2018-06-05T10:24:04.724Z,100898.78
2018-06-05T10:26:31.843Z,100885.36
2018-06-05T10:28:59.147Z,100890.78
2018-06-05T10:31:26.457Z,100897.88
2018-06-05T10:33:53.533Z,100897.17
2018-06-05T10:36:20.721Z,100899.08
2018-06-05T10:38:48.906Z,100900.24
2018-06-05T10:41:16.034Z,100901.36
2018-06-05T10:43:43.332Z,100902.29
2018-06-05T10:46:11.670Z,100913.23
2018-06-05T10:48:38.758Z,100908.94
2018-06-05T10:51:05.970Z,100912.30
2018-06-05T10:53:34.474Z,100921.48
2018-06-05T10:56:01.648Z,100918.79
2018-06-05T10:58:28.900Z,100914.73
2018-06-05T11:00:56.013Z,100918.66
2018-06-05T11:03:23.099Z,100912.69
2018-06-05T11:05:52.226Z,100917.82
2018-06-05T11:08:19.443Z,100913.22
2018-06-05T11:10:46.548Z,100912.74
2018-06-05T11:13:13.693Z,100919.47
2018-06-05T11:15:40.781Z,100918.28
2018-06-05T11:18:08.575Z,100919.22
2018-06-05T11:20:35.776Z,100916.64
2018-06-05T11:23:03.098Z,100918.20
2018-06-05T11:25:30.580Z,100919.63
2018-06-05T11:27:57.758Z,100919.01
2018-06-05T11:30:24.873Z,100923.05
2018-06-05T11:32:51.964Z,100922.09
2018-06-05T11:35:20.087Z,100921.69
2018-06-05T11:37:47.218Z,100926.31
2018-06-05T11:40:14.334Z,100925.07
2018-06-05T11:42:41.512Z,100921.56
2018-06-05T11:45:09.614Z,100918.89
2018-06-05T11:47:36.818Z,100921.20
2018-06-05T11:50:04.017Z,100919.75
2018-06-05T11:52:31.168Z,100917.71
2018-06-05T11:54:58.951Z,100915.67
2018-06-05T11:57:26.163Z,100919.20
2018-06-05T11:59:53.334Z,100919.48
2018-06-05T12:02:20.499Z,100920.23
2018-06-05T12:04:47.673Z,100922.20
2018-06-05T12:07:15.146Z,100923.50
2018-06-05T12:09:42.267Z,100927.17
2018-06-05T12:12:09.416Z,100931.97
2018-06-05T12:14:36.584Z,100922.81
2018-06-05T12:17:03.772Z,100918.97
2018-06-05T12:19:30.933Z,100922.05
2018-06-05T12:21:58.086Z,100917.45
2018-06-05T12:24:25.191Z,100916.92
2018-06-05T12:26:53.357Z,100919.50
2018-06-05T12:29:20.731Z,100913.11
2018-06-05T12:31:47.874Z,100906.39
2018-06-05T12:34:15.297Z,100904.59
2018-06-05T12:36:42.472Z,100896.67
2018-06-05T12:39:09.598Z,100895.47
2018-06-05T12:41:36.894Z,100896.38
2018-06-05T12:44:04.301Z,100888.17
2018-06-05T12:46:31.579Z,100885.56
2018-06-05T12:48:58.781Z,100882.45
2018-06-05T12:51:25.929Z,100880.79
2018-06-05T12:53:53.047Z,100876.91
2018-06-05T12:56:20.309Z,100880.30
2018-06-05T12:58:47.522Z,100871.23
2018-06-05T13:01:14.655Z,100870.13
2018-06-05T13:03:41.835Z,100867.58
2018-06-05T13:06:08.965Z,100865.97
2018-06-05T13:08:36.128Z,100865.64
2018-06-05T13:11:03.372Z,100858.84
2018-06-05T13:13:31.093Z,100865.77
2018-06-05T13:15:58.305Z,100867.79
2018-06-05T13:18:25.474Z,100864.84
2018-06-05T13:20:52.563Z,100863.09
2018-06-05T13:23:19.893Z,100854.72
2018-06-05T13:25:47.048Z,100867.16
2018-06-05T13:28:14.137Z,100859.02
2018-06-05T13:30:41.993Z,100860.83
2018-06-05T13:33:09.151Z,100868.34
2018-06-05T13:35:36.283Z,100860.17
2018-06-05T13:38:03.411Z,100861.20
2018-06-05T13:40:30.812Z,100853.84
2018-06-05T13:42:58.813Z,100851.81
2018-06-05T13:45:25.998Z,100846.09
2018-06-05T13:47:53.177Z,100845.12
2018-06-05T13:50:20.394Z,100845.03
2018-06-05T13:52:47.547Z,100849.72
2018-06-05T13:55:14.706Z,100843.97
2018-06-05T13:57:42.063Z,100840.97
2018-06-05T14:00:09.203Z,100840.67
2018-06-05T14:02:36.366Z,100842.56
2018-06-05T14:05:03.593Z,100835.74
2018-06-05T14:07:30.745Z,100834.10
2018-06-05T14:09:57.908Z,100838.94
2018-06-05T14:12:25.077Z,100831.95
2018-06-05T14:14:52.234Z,100829.20
2018-06-05T14:17:20.507Z,100835.00
2018-06-05T14:19:47.664Z,100831.94
2018-06-05T14:22:14.768Z,100826.48
2018-06-05T14:24:41.898Z,100827.67
2018-06-05T14:27:09.011Z,100824.72
2018-06-05T14:29:36.111Z,100832.84
2018-06-05T14:32:03.292Z,100828.38
2018-06-05T14:34:30.424Z,100826.00
2018-06-05T14:36:57.561Z,100820.89
2018-06-05T14:39:24.735Z,100814.88
2018-06-05T14:41:51.861Z,100816.95
2018-06-05T14:44:18.984Z,100820.18
2018-06-05T14:46:46.172Z,100816.41
2018-06-05T14:49:13.272Z,100818.50
2018-06-05T14:51:40.973Z,100818.45
2018-06-05T14:54:08.216Z,100818.45
2018-06-05T14:56:35.315Z,100818.75
2018-06-05T14:59:02.554Z,100815.03
2018-06-05T15:01:29.739Z,100814.94
2018-06-05T15:03:56.850Z,100815.73
2018-06-05T15:06:24.004Z,100817.96
2018-06-05T15:08:51.270Z,100811.80
2018-06-05T15:11:18.427Z,100815.96
2018-06-05T15:13:45.622Z,100817.84
2018-06-05T15:16:12.777Z,100818.17
2018-06-05T15:18:39.900Z,100814.58
2018-06-05T15:21:07.014Z,100812.48
2018-06-05T15:23:34.222Z,100812.76
2018-06-05T15:26:01.423Z,100812.69
2018-06-05T15:28:28.675Z,100809.20
2018-06-05T15:30:55.963Z,100806.01
2018-06-05T15:33:23.062Z,100803.89
2018-06-05T15:35:50.212Z,100804.86
2018-06-05T15:38:17.483Z,100805.25
2018-06-05T15:40:44.563Z,100803.79
2018-06-05T15:43:11.650Z,100805.58
2018-06-05T15:45:39.391Z,100806.26
2018-06-05T15:48:06.523Z,100804.30
2018-06-05T15:50:33.714Z,100798.24
2018-06-05T15:53:00.891Z,100798.03
2018-06-05T15:55:27.959Z,100787.72
2018-06-05T15:57:55.057Z,100781.39
2018-06-05T16:00:22.276Z,100780.91
2018-06-05T16:02:49.466Z,100785.87
2018-06-05T16:05:16.629Z,100782.78
2018-06-05T16:07:43.823Z,100787.63
2018-06-05T16:10:10.933Z,100789.52
2018-06-05T16:12:38.135Z,100795.32
2018-06-05T16:15:05.399Z,100798.36
2018-06-05T16:17:32.515Z,100802.19
2018-06-05T16:19:59.756Z,100796.71
2018-06-05T16:22:27.013Z,100795.53
2018-06-05T16:24:54.129Z,100791.80
2018-06-05T16:27:21.331Z,100789.66
2018-06-05T16:29:48.526Z,100791.48
2018-06-05T16:32:16.883Z,100791.97
2018-06-05T16:34:43.976Z,100785.97
2018-06-05T16:37:11.127Z,100787.23
2018-06-05T16:39:38.352Z,100792.70
2018-06-05T16:42:05.547Z,100793.19
2018-06-05T16:44:32.721Z,100791.67
2018-06-05T16:46:59.827Z,100793.44
2018-06-05T16:49:26.980Z,100792.45
2018-06-05T16:51:55.096Z,100792.59
2018-06-05T16:56:56.058Z,100792.80
2018-06-05T16:59:23.160Z,100791.81
2018-06-05T17:01:50.297Z,100790.39
2018-06-05T17:04:17.603Z,100790.66
2018-06-05T17:06:44.985Z,100792.06
2018-06-05T17:09:12.109Z,100789.17
2018-06-05T17:11:39.268Z,100796.65
2018-06-05T17:14:06.384Z,100794.82
2018-06-05T17:16:33.809Z,100790.43
2018-06-05T17:19:01.051Z,100786.61
2018-06-05T17:21:28.175Z,100790.13
2018-06-05T17:23:55.255Z,100795.38
2018-06-05T17:26:22.663Z,100795.98
2018-06-05T17:28:49.853Z,100792.89
2018-06-05T17:31:16.976Z,100790.69
2018-06-05T17:33:44.140Z,100789.30
2018-06-05T17:36:11.851Z,100792.95
2018-06-05T17:38:38.979Z,100791.80
2018-06-05T17:41:06.206Z,100789.92
2018-06-05T17:43:34.630Z,100788.09
2018-06-05T17:46:01.712Z,100791.36
2018-06-05T17:48:29.167Z,100793.50
2018-06-05T17:50:56.302Z,100794.94
2018-06-05T17:53:23.489Z,100797.87
2018-06-05T17:55:50.679Z,100800.27
2018-06-05T17:58:17.794Z,100803.03
2018-06-05T18:00:44.911Z,100802.32
2018-06-05T18:03:12.070Z,100808.22
2018-06-05T18:05:39.296Z,100803.05
2018-06-05T18:08:06.480Z,100815.78
2018-06-05T18:10:33.641Z,100813.13
2018-06-05T18:13:00.775Z,100819.52
2018-06-05T18:15:27.903Z,100820.88
2018-06-05T18:17:55.148Z,100826.47
2018-06-05T18:20:22.331Z,100835.88
2018-06-05T18:22:49.496Z,100830.77
2018-06-05T18:25:16.686Z,100826.41
2018-06-05T18:27:43.807Z,100833.87
2018-06-05T18:30:10.978Z,100834.84
2018-06-05T18:32:38.258Z,100842.92
2018-06-05T18:35:05.359Z,100842.64
2018-06-05T18:37:32.446Z,100847.21
2018-06-05T18:39:59.629Z,100843.87
2018-06-05T18:42:26.808Z,100850.24
2018-06-05T18:44:53.979Z,100855.52
2018-06-05T18:47:21.156Z,100859.05
2018-06-05T18:49:48.274Z,100862.80
2018-06-05T18:52:15.382Z,100874.56
2018-06-05T18:54:42.631Z,100879.84
2018-06-05T18:57:09.798Z,100878.91
2018-06-05T18:59:36.874Z,100876.41
2018-06-05T19:02:04.045Z,100884.15
2018-06-05T19:04:31.149Z,100880.63
2018-06-05T19:06:58.340Z,100887.66
2018-06-05T19:09:25.895Z,100895.80
2018-06-05T19:11:52.989Z,100903.66
2018-06-05T19:14:20.087Z,100902.09
2018-06-05T19:16:47.227Z,100910.67
2018-06-05T19:19:14.569Z,100917.63
2018-06-05T19:21:41.851Z,100925.66
2018-06-05T19:24:09.122Z,100933.25
2018-06-05T19:26:36.228Z,100941.20
2018-06-05T19:29:03.384Z,100939.58
2018-06-05T19:31:30.625Z,100942.52
2018-06-05T19:33:57.809Z,100954.42
2018-06-05T19:36:24.917Z,100963.41
2018-06-05T19:38:52.108Z,100961.09
2018-06-05T19:41:19.235Z,100965.48
2018-06-05T19:43:46.387Z,100972.86
2018-06-05T19:46:13.575Z,100970.08
2018-06-05T19:48:40.738Z,100982.38
2018-06-05T19:51:07.935Z,100979.92
2018-06-05T19:53:35.157Z,100984.27
2018-06-05T19:56:02.265Z,100991.27
2018-06-05T19:58:29.372Z,100997.17
2018-06-05T20:00:56.644Z,100997.89
2018-06-05T20:03:23.756Z,101002.66
2018-06-05T20:05:50.852Z,100995.22
2018-06-05T20:08:18.402Z,100995.88
2018-06-05T20:10:45.550Z,100992.96
2018-06-05T20:13:12.642Z,100999.76
2018-06-05T20:15:39.801Z,101001.65
2018-06-05T20:18:06.912Z,101009.44
2018-06-05T20:20:34.080Z,101008.48
2018-06-05T20:23:01.247Z,101012.66
2018-06-05T20:25:28.351Z,101016.09
2018-06-05T20:27:55.450Z,101015.09
2018-06-05T20:30:22.650Z,101022.83
2018-06-05T20:32:49.724Z,101021.19
2018-06-05T20:35:16.851Z,101030.85
2018-06-05T20:37:44.004Z,101034.39
2018-06-05T20:40:11.100Z,101028.68
2018-06-05T20:42:38.209Z,101032.66
2018-06-05T20:45:20.588Z,101035.48
2018-06-05T20:47:47.683Z,101045.09
2018-06-05T20:50:14.870Z,101049.84
2018-06-05T20:52:42.028Z,101043.99
2018-06-05T20:55:09.257Z,101047.91
2018-06-05T20:57:36.388Z,101056.89
2018-06-05T21:00:04.444Z,101052.62
2018-06-05T21:02:31.589Z,101051.81
2018-06-05T21:04:58.686Z,101050.29
2018-06-05T21:07:25.935Z,101052.83
2018-06-05T21:09:53.017Z,101055.08
2018-06-05T21:12:20.151Z,101056.12
2018-06-05T21:14:47.323Z,101062.23
2018-06-05T21:17:14.460Z,101065.94
2018-06-05T21:19:41.668Z,101069.31
2018-06-05T21:22:08.831Z,101068.19
2018-06-05T21:24:35.896Z,101083.01
2018-06-05T21:27:02.985Z,101086.67
2018-06-05T21:29:30.133Z,101085.86
2018-06-05T21:31:57.616Z,101088.32
2018-06-05T21:34:24.746Z,101090.02
2018-06-05T21:36:51.915Z,101090.89
2018-06-05T21:39:19.021Z,101091.28
2018-06-05T21:41:46.145Z,101096.08
2018-06-05T21:44:13.420Z,101097.78
2018-06-05T21:46:40.539Z,101091.80
2018-06-05T21:49:07.650Z,101095.88
2018-06-05T21:51:34.812Z,101101.80
2018-06-05T21:54:01.920Z,101112.34
2018-06-05T21:56:29.116Z,101112.17
2018-06-05T21:58:56.378Z,101115.63
2018-06-05T22:01:23.481Z,101112.01
2018-06-05T22:03:50.581Z,101114.45
2018-06-05T22:06:17.727Z,101110.53
2018-06-05T22:08:44.965Z,101109.13
2018-06-05T22:11:12.052Z,101118.21
2018-06-05T22:13:39.631Z,101119.55
2018-06-05T22:16:06.852Z,101119.30
2018-06-05T22:18:33.950Z,101117.64
2018-06-05T22:21:01.188Z,101120.47
2018-06-05T22:23:28.306Z,101122.88
2018-06-05T22:25:55.419Z,101130.58
2018-06-05T22:28:22.619Z,101128.38
2018-06-05T22:30:49.840Z,101131.63
2018-06-05T22:33:17.035Z,101132.00
2018-06-05T22:35:44.201Z,101137.12
2018-06-05T22:38:11.328Z,101141.14
2018-06-05T22:40:38.445Z,101140.56
2018-06-05T22:43:05.983Z,101144.81
2018-06-05T22:45:33.154Z,101144.59
2018-06-05T22:48:00.278Z,101146.91
2018-06-05T22:50:27.485Z,101149.33
2018-06-05T22:52:54.603Z,101148.58
2018-06-05T22:55:21.737Z,101149.19
2018-06-05T22:57:49.029Z,101145.48
2018-06-05T23:00:22.195Z,101149.03
2018-06-05T23:02:49.342Z,101149.22
2018-06-05T23:05:16.483Z,101151.56
2018-06-05T23:07:43.627Z,101146.91
2018-06-05T23:10:10.898Z,101142.95
2018-06-05T23:12:38.045Z,101145.28
2018-06-05T23:15:05.148Z,101151.78
2018-06-05T23:17:32.592Z,101147.09
2018-06-05T23:19:59.702Z,101146.68
2018-06-05T23:22:27.003Z,101142.30
2018-06-05T23:24:54.176Z,101154.27
2018-06-05T23:27:21.271Z,101145.16
2018-06-05T23:29:48.494Z,101151.94
2018-06-05T23:32:15.650Z,101155.11
2018-06-05T23:34:42.892Z,101156.57
2018-06-05T23:37:09.992Z,101154.42
2018-06-05T23:39:37.146Z,101157.69
2018-06-05T23:42:04.284Z,101159.98
2018-06-05T23:44:31.399Z,101155.70
2018-06-05T23:46:59.042Z,101162.65
2018-06-05T23:49:26.162Z,101158.48
2018-06-05T23:51:57.889Z,101155.55
2018-06-05T23:54:25.213Z,101156.04
2018-06-05T23:56:52.338Z,101162.22
2018-06-05T23:59:19.529Z,101160.61
